Wetterdaten: Woche 13.02.23 - 19.02.23 (KW7)
Datum Zeit Temp. Aussen Temp. o. S. Temp +5cm Feuchte Auss Luftdruck Regen Sonnenschein Regendauer Solar Windben Empfang
13.02.2023 00:00 7,4 C 6,7 C 3,3 C 93 % 1037,9 hPa 0,0 l/m 0,00 h 0,00 h 0 W/m 0,0 km/h (0 Bft) 97,79 %
13.02.2023 01:00 7,6 C 7,1 C 3,8 C 93 % 1037,5 hPa 0,0 l/m 0,00 h 0,00 h 0 W/m 0,1 km/h (0 Bft) 96,08 %
13.02.2023 02:00 7,8 C 7,0 C 3,8 C 91 % 1037,3 hPa 0,0 l/m 0,00 h 0,00 h 0 W/m 8,7 km/h (2 Bft) 95,24 %
13.02.2023 03:00 7,3 C 6,2 C 3,1 C 90 % 1037,1 hPa 0,0 l/m 0,00 h 0,00 h 0 W/m 7,2 km/h (2 Bft) 97,04 %
13.02.2023 04:00 6,9 C 6,1 C 2,8 C 92 % 1037,1 hPa 0,0 l/m 0,00 h 0,00 h 0 W/m 8,5 km/h (2 Bft) 97,93 %
13.02.2023 05:00 6,5 C 5,2 C 2,3 C 92 % 1037,2 hPa 0,0 l/m 0,00 h 0,00 h 0 W/m 4,9 km/h (1 Bft) 94,66 %
13.02.2023 06:00 5,2 C 3,4 C 0,7 C 92 % 1037,1 hPa 0,0 l/m 0,00 h 0,00 h 0 W/m 1,2 km/h (1 Bft) 97,65 %
13.02.2023 07:00 5,1 C 4,4 C 1,5 C 94 % 1036,9 hPa 0,0 l/m 0,00 h 0,00 h 5 W/m 5,4 km/h (1 Bft) 92,39 %
13.02.2023 08:00 5,4 C 4,9 C 2,0 C 95 % 1037,0 hPa 0,0 l/m 0,00 h 0,00 h 23 W/m 6,3 km/h (2 Bft) 94,03 %
13.02.2023 09:00 6,7 C 7,9 C 3,3 C 94 % 1037,3 hPa 0,0 l/m 0,47 h 0,00 h 100 W/m 12,7 km/h (3 Bft) 99,07 %
13.02.2023 10:00 8,9 C 15,1 C 4,7 C 88 % 1037,4 hPa 0,0 l/m 0,90 h 0,00 h 273 W/m 13,0 km/h (3 Bft) 97,79 %
13.02.2023 11:00 11,0 C 18,0 C 7,0 C 78 % 1037,5 hPa 0,0 l/m 0,93 h 0,00 h 362 W/m 12,2 km/h (3 Bft) 97,98 %
13.02.2023 12:00 11,5 C 14,5 C 8,6 C 76 % 1037,0 hPa 0,0 l/m 0,33 h 0,00 h 174 W/m 9,9 km/h (2 Bft) 98,56 %
13.02.2023 13:00 13,1 C 21,4 C 8,0 C 72 % 1036,5 hPa 0,0 l/m 1,00 h 0,00 h 452 W/m 7,7 km/h (2 Bft) 95,21 %
13.02.2023 14:00 13,7 C 16,9 C 7,9 C 69 % 1035,9 hPa 0,0 l/m 1,00 h 0,00 h 389 W/m 8,2 km/h (2 Bft) 98,89 %
13.02.2023 15:00 13,8 C 15,2 C 8,0 C 69 % 1035,5 hPa 0,0 l/m 1,00 h 0,00 h 268 W/m 5,6 km/h (1 Bft) 96,32 %
13.02.2023 16:00 13,4 C 11,9 C 7,0 C 69 % 1035,1 hPa 0,0 l/m 0,13 h 0,00 h 46 W/m 1,0 km/h (0 Bft) 96,08 %
13.02.2023 17:00 12,1 C 9,2 C 4,1 C 72 % 1034,9 hPa 0,0 l/m 0,00 h 0,00 h 13 W/m 0,0 km/h (0 Bft) 99,22 %
13.02.2023 18:00 9,7 C 6,8 C 2,1 C 78 % 1035,3 hPa 0,0 l/m 0,00 h 0,00 h 0 W/m 0,0 km/h (0 Bft) 95,63 %
13.02.2023 19:00 8,0 C 6,2 C 1,6 C 83 % 1035,3 hPa 0,0 l/m 0,00 h 0,00 h 0 W/m 0,0 km/h (0 Bft) 97,02 %
13.02.2023 20:00 6,8 C 5,0 C 0,8 C 84 % 1035,3 hPa 0,0 l/m 0,00 h 0,00 h 0 W/m 0,0 km/h (0 Bft) 98,28 %
13.02.2023 21:00 7,2 C 7,1 C 3,1 C 86 % 1035,4 hPa 0,0 l/m 0,00 h 0,00 h 0 W/m 2,2 km/h (1 Bft) 96,31 %
13.02.2023 22:00 7,5 C 6,5 C 2,9 C 84 % 1035,3 hPa 0,0 l/m 0,00 h 0,00 h 0 W/m 7,9 km/h (2 Bft) 97,73 %
13.02.2023 23:00 7,0 C 5,9 C 2,4 C 84 % 1035,4 hPa 0,0 l/m 0,00 h 0,00 h 0 W/m 6,4 km/h (2 Bft) 95,58 %
14.02.2023 00:00 6,3 C 5,2 C 1,7 C 85 % 1035,5 hPa 0,0 l/m 0,00 h 0,00 h 0 W/m 6,0 km/h (2 Bft) 99,43 %
14.02.2023 01:00 5,9 C 5,0 C 1,7 C 87 % 1035,4 hPa 0,0 l/m 0,00 h 0,00 h 0 W/m 11,3 km/h (2 Bft) 94,38 %
14.02.2023 02:00 5,4 C 4,4 C 1,1 C 87 % 1035,4 hPa 0,0 l/m 0,00 h 0,00 h 0 W/m 7,4 km/h (2 Bft) 96,55 %
14.02.2023 03:00 5,0 C 4,2 C 1,0 C 88 % 1035,1 hPa 0,0 l/m 0,00 h 0,00 h 0 W/m 9,8 km/h (2 Bft) 96,51 %
14.02.2023 04:00 4,5 C 3,5 C 0,6 C 89 % 1035,0 hPa 0,0 l/m 0,00 h 0,00 h 0 W/m 9,2 km/h (2 Bft) 94,42 %
14.02.2023 05:00 4,2 C 3,3 C 0,2 C 90 % 1034,9 hPa 0,0 l/m 0,00 h 0,00 h 0 W/m 11,3 km/h (2 Bft) 98,72 %
14.02.2023 06:00 3,8 C 3,0 C 0,0 C 90 % 1034,5 hPa 0,0 l/m 0,00 h 0,00 h 0 W/m 9,7 km/h (2 Bft) 96,52 %
14.02.2023 07:00 3,6 C 2,8 C -0,1 C 92 % 1034,6 hPa 0,0 l/m 0,00 h 0,00 h 6 W/m 12,1 km/h (2 Bft) 98,22 %
14.02.2023 08:00 3,5 C 3,0 C -0,3 C 92 % 1034,7 hPa 0,0 l/m 0,03 h 0,00 h 27 W/m 9,8 km/h (2 Bft) 95,56 %
14.02.2023 09:00 4,6 C 6,3 C 0,9 C 92 % 1034,8 hPa 0,0 l/m 0,47 h 0,00 h 115 W/m 10,2 km/h (2 Bft) 99,00 %
14.02.2023 10:00 6,8 C 13,2 C 2,5 C 86 % 1034,6 hPa 0,0 l/m 0,90 h 0,00 h 287 W/m 15,7 km/h (3 Bft) 96,42 %
14.02.2023 11:00 9,2 C 16,0 C 5,9 C 78 % 1034,3 hPa 0,0 l/m 0,93 h 0,00 h 371 W/m 14,2 km/h (3 Bft) 98,98 %
14.02.2023 12:00 10,0 C 12,6 C 7,2 C 76 % 1033,9 hPa 0,0 l/m 0,30 h 0,00 h 181 W/m 12,2 km/h (2 Bft) 98,00 %
14.02.2023 13:00 11,7 C 19,0 C 6,7 C 72 % 1033,1 hPa 0,0 l/m 1,00 h 0,00 h 455 W/m 8,9 km/h (2 Bft) 96,31 %
14.02.2023 14:00 12,7 C 15,5 C 6,8 C 69 % 1032,4 hPa 0,0 l/m 1,00 h 0,00 h 397 W/m 7,8 km/h (2 Bft) 83,20 %
14.02.2023 15:00 12,8 C 13,6 C 7,0 C 68 % 1031,8 hPa 0,0 l/m 1,00 h 0,00 h 276 W/m 8,1 km/h (2 Bft) 87,51 %
14.02.2023 16:00 12,1 C 11,1 C 6,4 C 70 % 1031,3 hPa 0,0 l/m 0,18 h 0,00 h 58 W/m 5,2 km/h (1 Bft) 98,66 %
14.02.2023 17:00 11,2 C 8,7 C 3,5 C 73 % 1031,3 hPa 0,0 l/m 0,00 h 0,00 h 15 W/m 0,5 km/h (0 Bft) 96,03 %
14.02.2023 18:00 9,0 C 5,9 C 1,2 C 77 % 1031,4 hPa 0,0 l/m 0,00 h 0,00 h 0 W/m 0,1 km/h (0 Bft) 96,11 %
14.02.2023 19:00 6,8 C 4,3 C 0,2 C 81 % 1031,3 hPa 0,0 l/m 0,00 h 0,00 h 0 W/m 0,2 km/h (0 Bft) 97,39 %
14.02.2023 20:00 5,9 C 5,3 C 1,3 C 87 % 1030,9 hPa 0,0 l/m 0,00 h 0,00 h 0 W/m 3,4 km/h (1 Bft) 87,01 %
14.02.2023 21:00 6,0 C 5,2 C 1,6 C 86 % 1030,6 hPa 0,0 l/m 0,00 h 0,00 h 0 W/m 7,0 km/h (2 Bft) 72,93 %
14.02.2023 22:00 5,2 C 4,2 C 0,9 C 86 % 1030,5 hPa 0,0 l/m 0,00 h 0,00 h 0 W/m 10,6 km/h (2 Bft) 62,10 %
14.02.2023 23:00 4,2 C 3,2 C 0,1 C 88 % 1030,2 hPa 0,0 l/m 0,00 h 0,00 h 0 W/m 9,9 km/h (2 Bft) 93,97 %
15.02.2023 00:00 3,5 C 2,6 C -0,5 C 90 % 1030,0 hPa 0,0 l/m 0,00 h 0,00 h 0 W/m 12,8 km/h (3 Bft) 95,92 %
15.02.2023 01:00 2,9 C 2,2 C -0,9 C 91 % 1029,7 hPa 0,0 l/m 0,00 h 0,00 h 0 W/m 14,7 km/h (3 Bft) 94,57 %
15.02.2023 02:00 2,5 C 1,7 C -1,2 C 92 % 1029,5 hPa 0,0 l/m 0,00 h 0,00 h 0 W/m 14,3 km/h (3 Bft) 95,52 %
15.02.2023 03:00 2,1 C 1,2 C -1,7 C 92 % 1029,0 hPa 0,0 l/m 0,00 h 0,00 h 0 W/m 12,3 km/h (3 Bft) 99,01 %
15.02.2023 04:00 1,7 C 1,0 C -1,8 C 93 % 1028,5 hPa 0,0 l/m 0,00 h 0,00 h 0 W/m 12,6 km/h (3 Bft) 94,75 %
15.02.2023 05:00 1,4 C 0,6 C -2,2 C 93 % 1028,3 hPa 0,0 l/m 0,00 h 0,00 h 0 W/m 14,1 km/h (3 Bft) 94,65 %
15.02.2023 06:00 1,1 C 0,4 C -2,3 C 94 % 1028,0 hPa 0,0 l/m 0,00 h 0,00 h 0 W/m 11,5 km/h (2 Bft) 96,34 %
15.02.2023 07:00 0,8 C 0,0 C -2,7 C 94 % 1028,0 hPa 0,0 l/m 0,00 h 0,00 h 6 W/m 13,6 km/h (3 Bft) 95,42 %
15.02.2023 08:00 0,9 C 0,6 C -2,3 C 94 % 1027,8 hPa 0,0 l/m 0,07 h 0,00 h 32 W/m 14,7 km/h (3 Bft) 96,73 %
15.02.2023 09:00 2,0 C 3,8 C -1,3 C 94 % 1027,3 hPa 0,0 l/m 0,47 h 0,00 h 114 W/m 13,5 km/h (3 Bft) 96,17 %
15.02.2023 10:00 4,2 C 9,9 C 0,5 C 89 % 1027,2 hPa 0,0 l/m 0,90 h 0,00 h 286 W/m 15,7 km/h (3 Bft) 97,66 %
15.02.2023 11:00 6,6 C 12,1 C 4,2 C 81 % 1027,1 hPa 0,0 l/m 1,00 h 0,00 h 343 W/m 15,5 km/h (3 Bft) 98,29 %
15.02.2023 12:00 8,0 C 10,5 C 5,3 C 77 % 1026,7 hPa 0,0 l/m 0,37 h 0,00 h 213 W/m 14,6 km/h (3 Bft) 99,63 %
15.02.2023 13:00 10,3 C 16,4 C 5,9 C 71 % 1026,0 hPa 0,0 l/m 1,00 h 0,00 h 450 W/m 13,4 km/h (3 Bft) 95,68 %
15.02.2023 14:00 12,0 C 14,5 C 6,8 C 66 % 1025,4 hPa 0,0 l/m 1,00 h 0,00 h 406 W/m 13,9 km/h (3 Bft) 90,62 %
15.02.2023 15:00 12,5 C 13,0 C 6,9 C 65 % 1025,0 hPa 0,0 l/m 1,00 h 0,00 h 223 W/m 8,9 km/h (2 Bft) 78,53 %
15.02.2023 16:00 11,8 C 11,2 C 6,5 C 69 % 1024,9 hPa 0,0 l/m 0,47 h 0,00 h 93 W/m 7,9 km/h (2 Bft) 97,02 %
15.02.2023 17:00 10,8 C 9,4 C 5,2 C 72 % 1024,8 hPa 0,0 l/m 0,00 h 0,00 h 20 W/m 7,2 km/h (2 Bft) 97,81 %
15.02.2023 18:00 9,6 C 8,2 C 4,3 C 76 % 1025,0 hPa 0,0 l/m 0,00 h 0,00 h 0 W/m 6,7 km/h (2 Bft) 95,99 %
15.02.2023 19:00 8,7 C 7,5 C 3,6 C 79 % 1025,2 hPa 0,0 l/m 0,00 h 0,00 h 0 W/m 5,9 km/h (2 Bft) 85,60 %
15.02.2023 20:00 7,8 C 6,6 C 2,7 C 81 % 1025,3 hPa 0,0 l/m 0,00 h 0,00 h 0 W/m 5,0 km/h (1 Bft) 83,96 %
15.02.2023 21:00 6,8 C 5,8 C 2,2 C 83 % 1025,5 hPa 0,0 l/m 0,00 h 0,00 h 0 W/m 7,8 km/h (2 Bft) 73,60 %
15.02.2023 22:00 6,0 C 5,1 C 1,5 C 85 % 1025,7 hPa 0,0 l/m 0,00 h 0,00 h 0 W/m 8,6 km/h (2 Bft) 58,92 %
15.02.2023 23:00 5,3 C 4,4 C 1,1 C 87 % 1025,5 hPa 0,0 l/m 0,00 h 0,00 h 0 W/m 9,5 km/h (2 Bft) 74,73 %
16.02.2023 00:00 4,6 C 3,6 C 0,4 C 88 % 1025,6 hPa 0,0 l/m 0,00 h 0,00 h 0 W/m 10,7 km/h (2 Bft) 89,54 %
16.02.2023 01:00 3,8 C 2,9 C -0,1 C 90 % 1025,4 hPa 0,0 l/m 0,00 h 0,00 h 0 W/m 9,7 km/h (2 Bft) 92,86 %
16.02.2023 02:00 3,3 C 2,3 C -0,8 C 90 % 1025,2 hPa 0,0 l/m 0,00 h 0,00 h 0 W/m 7,8 km/h (2 Bft) 97,05 %
16.02.2023 03:00 2,7 C 1,8 C -1,1 C 91 % 1024,9 hPa 0,0 l/m 0,00 h 0,00 h 0 W/m 7,0 km/h (2 Bft) 92,00 %
16.02.2023 04:00 2,3 C 1,6 C -1,5 C 92 % 1024,4 hPa 0,0 l/m 0,00 h 0,00 h 0 W/m 10,0 km/h (2 Bft) 87,13 %
16.02.2023 05:00 2,1 C 1,3 C -1,7 C 93 % 1024,3 hPa 0,0 l/m 0,00 h 0,00 h 0 W/m 10,5 km/h (2 Bft) 92,98 %
16.02.2023 06:00 2,1 C 1,4 C -1,6 C 93 % 1024,4 hPa 0,0 l/m 0,00 h 0,00 h 0 W/m 12,2 km/h (2 Bft) 97,12 %
16.02.2023 07:00 2,2 C 1,9 C -1,1 C 93 % 1024,3 hPa 0,0 l/m 0,00 h 0,00 h 9 W/m 13,7 km/h (3 Bft) 96,16 %
16.02.2023 08:00 2,8 C 2,6 C -0,6 C 93 % 1024,4 hPa 0,0 l/m 0,00 h 0,00 h 25 W/m 16,0 km/h (3 Bft) 96,51 %
16.02.2023 09:00 3,7 C 4,3 C 0,5 C 92 % 1024,6 hPa 0,0 l/m 0,50 h 0,00 h 120 W/m 14,5 km/h (3 Bft) 97,58 %
16.02.2023 10:00 5,2 C 5,8 C 1,9 C 89 % 1024,7 hPa 0,0 l/m 0,23 h 0,00 h 132 W/m 11,4 km/h (2 Bft) 95,38 %
16.02.2023 11:00 6,3 C 6,4 C 2,6 C 87 % 1025,0 hPa 0,0 l/m 0,00 h 0,00 h 101 W/m 9,0 km/h (2 Bft) 96,85 %
16.02.2023 12:00 7,6 C 7,8 C 3,6 C 87 % 1024,5 hPa 0,0 l/m 0,00 h 0,23 h 132 W/m 9,2 km/h (2 Bft) 98,22 %
16.02.2023 13:00 8,6 C 8,8 C 3,6 C 90 % 1024,1 hPa 0,2 l/m 0,00 h 0,23 h 140 W/m 8,2 km/h (2 Bft) 97,02 %
16.02.2023 14:00 9,9 C 10,5 C 5,2 C 87 % 1023,5 hPa 0,0 l/m 0,27 h 0,00 h 163 W/m 11,2 km/h (2 Bft) 97,63 %
16.02.2023 15:00 11,4 C 12,1 C 6,7 C 83 % 1022,7 hPa 0,0 l/m 0,97 h 0,00 h 188 W/m 15,4 km/h (3 Bft) 96,79 %
16.02.2023 16:00 11,8 C 11,6 C 6,7 C 81 % 1022,1 hPa 0,0 l/m 0,40 h 0,00 h 86 W/m 14,6 km/h (3 Bft) 96,84 %
16.02.2023 17:00 11,5 C 10,8 C 6,6 C 80 % 1022,0 hPa 0,0 l/m 0,00 h 0,00 h 19 W/m 12,9 km/h (3 Bft) 95,02 %
16.02.2023 18:00 11,2 C 10,5 C 6,2 C 80 % 1021,8 hPa 0,0 l/m 0,00 h 0,10 h 0 W/m 14,7 km/h (3 Bft) 97,22 %
16.02.2023 19:00 11,0 C 10,2 C 6,1 C 82 % 1022,0 hPa 0,0 l/m 0,00 h 0,00 h 0 W/m 21,6 km/h (4 Bft) 96,14 %
16.02.2023 20:00 10,2 C 9,5 C 5,7 C 86 % 1022,0 hPa 0,0 l/m 0,00 h 0,00 h 0 W/m 24,1 km/h (4 Bft) 98,01 %
16.02.2023 21:00 10,1 C 9,4 C 5,6 C 87 % 1021,8 hPa 0,0 l/m 0,00 h 0,00 h 0 W/m 27,0 km/h (4 Bft) 96,65 %
16.02.2023 22:00 10,2 C 9,4 C 5,9 C 89 % 1021,5 hPa 0,0 l/m 0,00 h 0,00 h 0 W/m 24,0 km/h (4 Bft) 97,58 %
16.02.2023 23:00 10,4 C 9,7 C 6,1 C 89 % 1021,2 hPa 0,0 l/m 0,00 h 0,00 h 0 W/m 19,4 km/h (3 Bft) 96,88 %
17.02.2023 00:00 10,7 C 10,0 C 6,1 C 89 % 1021,2 hPa 0,0 l/m 0,00 h 0,00 h 0 W/m 20,1 km/h (4 Bft) 96,98 %
17.02.2023 01:00 10,8 C 10,0 C 6,4 C 89 % 1021,0 hPa 0,0 l/m 0,00 h 0,00 h 0 W/m 20,4 km/h (4 Bft) 97,79 %
17.02.2023 02:00 10,7 C 10,0 C 6,1 C 91 % 1020,6 hPa 0,0 l/m 0,00 h 0,00 h 0 W/m 18,4 km/h (3 Bft) 95,87 %
17.02.2023 03:00 10,7 C 10,0 C 6,6 C 91 % 1020,0 hPa 0,0 l/m 0,00 h 0,00 h 0 W/m 17,1 km/h (3 Bft) 95,61 %
17.02.2023 04:00 10,8 C 10,0 C 6,7 C 91 % 1019,5 hPa 0,0 l/m 0,00 h 0,00 h 0 W/m 20,0 km/h (4 Bft) 97,86 %
17.02.2023 05:00 10,8 C 10,0 C 6,7 C 91 % 1019,6 hPa 0,0 l/m 0,00 h 0,00 h 0 W/m 16,3 km/h (3 Bft) 95,15 %
17.02.2023 06:00 10,8 C 10,0 C 6,7 C 90 % 1019,4 hPa 0,0 l/m 0,00 h 0,00 h 0 W/m 17,6 km/h (3 Bft) 97,33 %
17.02.2023 07:00 10,9 C 10,0 C 6,7 C 91 % 1019,3 hPa 0,0 l/m 0,00 h 0,30 h 0 W/m 21,7 km/h (4 Bft) 94,87 %
17.02.2023 08:00 10,9 C 10,2 C 6,7 C 92 % 1019,3 hPa 0,0 l/m 0,00 h 0,00 h 10 W/m 20,6 km/h (4 Bft) 93,09 %
17.02.2023 09:00 11,3 C 10,9 C 7,4 C 91 % 1019,3 hPa 0,0 l/m 0,00 h 0,00 h 64 W/m 24,0 km/h (4 Bft) 98,16 %
17.02.2023 10:00 12,0 C 11,9 C 8,1 C 90 % 1019,4 hPa 0,0 l/m 0,00 h 0,00 h 124 W/m 23,4 km/h (4 Bft) 95,16 %
17.02.2023 11:00 12,8 C 12,7 C 8,9 C 88 % 1019,7 hPa 0,0 l/m 0,03 h 0,00 h 143 W/m 26,6 km/h (4 Bft) 95,94 %
17.02.2023 12:00 13,5 C 13,5 C 9,7 C 85 % 1019,4 hPa 0,0 l/m 0,00 h 0,00 h 154 W/m 28,5 km/h (4 Bft) 99,12 %
17.02.2023 13:00 14,5 C 14,6 C 10,4 C 83 % 1019,0 hPa 0,0 l/m 0,27 h 0,00 h 195 W/m 25,8 km/h (4 Bft) 95,95 %
17.02.2023 14:00 14,8 C 14,4 C 10,5 C 81 % 1019,1 hPa 0,0 l/m 0,03 h 0,00 h 113 W/m 22,7 km/h (4 Bft) 97,26 %
17.02.2023 15:00 14,1 C 13,4 C 9,6 C 81 % 1019,9 hPa 0,0 l/m 0,00 h 0,00 h 33 W/m 24,1 km/h (4 Bft) 97,97 %
17.02.2023 16:00 13,2 C 12,5 C 8,9 C 84 % 1020,5 hPa 0,0 l/m 0,00 h 0,00 h 18 W/m 23,9 km/h (4 Bft) 96,72 %
17.02.2023 17:00 12,6 C 12,0 C 8,3 C 85 % 1021,1 hPa 0,0 l/m 0,00 h 0,00 h 21 W/m 21,7 km/h (4 Bft) 97,14 %
17.02.2023 18:00 12,1 C 11,4 C 7,8 C 87 % 1022,0 hPa 0,0 l/m 0,00 h 0,00 h 0 W/m 18,2 km/h (3 Bft) 98,63 %
17.02.2023 19:00 11,9 C 11,1 C 7,8 C 88 % 1022,6 hPa 0,0 l/m 0,00 h 0,00 h 0 W/m 18,2 km/h (3 Bft) 95,68 %
17.02.2023 20:00 11,7 C 11,1 C 7,6 C 90 % 1023,1 hPa 0,0 l/m 0,00 h 0,00 h 0 W/m 18,8 km/h (3 Bft) 98,19 %
17.02.2023 21:00 11,5 C 10,7 C 7,2 C 90 % 1023,4 hPa 0,0 l/m 0,00 h 0,00 h 0 W/m 17,6 km/h (3 Bft) 98,22 %
17.02.2023 22:00 11,3 C 10,6 C 7,2 C 91 % 1023,6 hPa 0,0 l/m 0,00 h 0,00 h 0 W/m 20,4 km/h (4 Bft) 95,54 %
17.02.2023 23:00 11,1 C 10,6 C 7,2 C 92 % 1023,6 hPa 0,0 l/m 0,00 h 0,00 h 0 W/m 16,6 km/h (3 Bft) 98,84 %
18.02.2023 00:00 11,1 C 10,6 C 7,2 C 92 % 1023,4 hPa 0,0 l/m 0,00 h 0,00 h 0 W/m 15,8 km/h (3 Bft) 94,93 %
18.02.2023 01:00 11,0 C 10,3 C 7,2 C 93 % 1023,1 hPa 0,0 l/m 0,00 h 0,00 h 0 W/m 18,6 km/h (3 Bft) 96,66 %
18.02.2023 02:00 10,8 C 10,0 C 7,1 C 93 % 1022,5 hPa 0,0 l/m 0,00 h 0,00 h 0 W/m 16,2 km/h (3 Bft) 97,09 %
18.02.2023 03:00 10,7 C 10,0 C 6,7 C 94 % 1021,9 hPa 0,0 l/m 0,00 h 0,00 h 0 W/m 15,9 km/h (3 Bft) 96,35 %
18.02.2023 04:00 10,5 C 9,9 C 6,7 C 96 % 1021,2 hPa 0,0 l/m 0,00 h 0,03 h 0 W/m 17,6 km/h (3 Bft) 97,36 %
18.02.2023 05:00 10,3 C 9,4 C 6,6 C 97 % 1020,5 hPa 0,0 l/m 0,00 h 0,07 h 0 W/m 17,2 km/h (3 Bft) 98,79 %
18.02.2023 06:00 10,1 C 9,4 C 6,1 C 97 % 1019,9 hPa 0,2 l/m 0,00 h 0,07 h 0 W/m 22,0 km/h (4 Bft) 93,59 %
18.02.2023 07:00 10,1 C 9,5 C 6,4 C 97 % 1019,4 hPa 0,2 l/m 0,00 h 0,00 h 0 W/m 25,2 km/h (4 Bft) 98,22 %
18.02.2023 08:00 10,3 C 9,6 C 6,5 C 94 % 1019,6 hPa 0,0 l/m 0,00 h 0,13 h 17 W/m 25,2 km/h (4 Bft) 94,64 %
18.02.2023 09:00 9,8 C 9,4 C 6,0 C 94 % 1019,9 hPa 0,0 l/m 0,00 h 0,03 h 53 W/m 24,4 km/h (4 Bft) 96,66 %
18.02.2023 10:00 10,0 C 9,6 C 6,7 C 90 % 1019,7 hPa 0,0 l/m 0,00 h 0,00 h 58 W/m 23,4 km/h (4 Bft) 96,68 %
18.02.2023 11:00 10,2 C 9,7 C 6,3 C 90 % 1019,7 hPa 0,0 l/m 0,00 h 0,30 h 69 W/m 24,8 km/h (4 Bft) 98,00 %
18.02.2023 12:00 9,6 C 8,9 C 5,7 C 95 % 1020,0 hPa 0,0 l/m 0,00 h 0,20 h 83 W/m 23,2 km/h (4 Bft) 97,12 %
18.02.2023 13:00 9,6 C 9,0 C 6,1 C 97 % 1019,9 hPa 0,4 l/m 0,00 h 0,00 h 98 W/m 19,0 km/h (3 Bft) 95,59 %
18.02.2023 14:00 9,8 C 9,3 C 6,3 C 98 % 1019,9 hPa 0,0 l/m 0,00 h 0,00 h 44 W/m 19,2 km/h (3 Bft) 97,73 %
18.02.2023 15:00 10,1 C 9,6 C 6,7 C 97 % 1019,8 hPa 0,0 l/m 0,00 h 0,17 h 49 W/m 18,2 km/h (3 Bft) 95,87 %
18.02.2023 16:00 10,3 C 9,8 C 6,7 C 97 % 1019,8 hPa 0,0 l/m 0,00 h 0,00 h 25 W/m 19,0 km/h (3 Bft) 95,68 %
18.02.2023 17:00 10,4 C 10,0 C 6,8 C 96 % 1019,8 hPa 0,0 l/m 0,00 h 0,00 h 12 W/m 17,6 km/h (3 Bft) 98,37 %
18.02.2023 18:00 10,3 C 9,7 C 6,7 C 96 % 1020,0 hPa 0,2 l/m 0,00 h 0,27 h 0 W/m 14,4 km/h (3 Bft) 97,21 %
18.02.2023 19:00 10,1 C 9,4 C 6,7 C 97 % 1020,0 hPa 0,4 l/m 0,00 h 0,17 h 0 W/m 13,7 km/h (3 Bft) 97,01 %
18.02.2023 20:00 10,0 C 9,4 C 6,7 C 98 % 1019,8 hPa 0,0 l/m 0,00 h 0,00 h 0 W/m 16,0 km/h (3 Bft) 98,88 %
18.02.2023 21:00 10,2 C 9,4 C 6,7 C 97 % 1019,5 hPa 0,0 l/m 0,00 h 0,00 h 0 W/m 18,0 km/h (3 Bft) 95,46 %
18.02.2023 22:00 10,1 C 9,4 C 6,7 C 97 % 1019,2 hPa 0,0 l/m 0,00 h 0,10 h 0 W/m 15,9 km/h (3 Bft) 96,98 %
18.02.2023 23:00 10,0 C 9,4 C 6,7 C 97 % 1018,7 hPa 0,2 l/m 0,00 h 0,17 h 0 W/m 17,1 km/h (3 Bft) 97,94 %
19.02.2023 00:00 10,0 C 9,4 C 6,7 C 97 % 1018,6 hPa 0,0 l/m 0,00 h 0,00 h 0 W/m 17,7 km/h (3 Bft) 97,81 %
19.02.2023 01:00 10,0 C 9,4 C 6,7 C 97 % 1018,2 hPa 0,4 l/m 0,00 h 0,40 h 0 W/m 18,0 km/h (3 Bft) 97,62 %
19.02.2023 02:00 10,0 C 9,4 C 6,7 C 97 % 1018,1 hPa 0,0 l/m 0,00 h 0,13 h 0 W/m 18,5 km/h (3 Bft) 96,24 %
19.02.2023 03:00 9,9 C 9,3 C 6,7 C 96 % 1018,3 hPa 0,4 l/m 0,00 h 0,40 h 0 W/m 14,8 km/h (3 Bft) 97,48 %
19.02.2023 04:00 9,8 C 9,4 C 6,5 C 96 % 1018,5 hPa 0,0 l/m 0,00 h 0,00 h 0 W/m 15,2 km/h (3 Bft) 95,87 %
19.02.2023 05:00 9,8 C 9,2 C 6,1 C 95 % 1019,1 hPa 0,0 l/m 0,00 h 0,13 h 0 W/m 17,8 km/h (3 Bft) 97,87 %
19.02.2023 06:00 9,5 C 8,9 C 6,1 C 95 % 1019,9 hPa 0,0 l/m 0,00 h 0,00 h 0 W/m 16,3 km/h (3 Bft) 98,53 %
19.02.2023 07:00 9,3 C 8,4 C 6,1 C 95 % 1020,4 hPa 0,0 l/m 0,00 h 0,07 h 3 W/m 16,4 km/h (3 Bft) 95,09 %
19.02.2023 08:00 9,2 C 8,5 C 6,1 C 95 % 1021,4 hPa 0,0 l/m 0,00 h 0,00 h 17 W/m 15,9 km/h (3 Bft) 98,15 %
19.02.2023 09:00 9,3 C 9,2 C 6,6 C 95 % 1022,2 hPa 0,0 l/m 0,00 h 0,00 h 62 W/m 14,8 km/h (3 Bft) 97,11 %
19.02.2023 10:00 9,5 C 9,1 C 6,5 C 94 % 1022,7 hPa 0,0 l/m 0,00 h 0,13 h 76 W/m 13,5 km/h (3 Bft) 95,41 %
19.02.2023 11:00 9,8 C 10,2 C 7,2 C 94 % 1023,6 hPa 0,0 l/m 0,13 h 0,07 h 133 W/m 16,1 km/h (3 Bft) 99,15 %
19.02.2023 12:00 9,8 C 9,5 C 6,8 C 92 % 1024,1 hPa 0,0 l/m 0,00 h 0,07 h 90 W/m 18,5 km/h (3 Bft) 96,49 %
19.02.2023 13:00 10,1 C 10,1 C 7,1 C 92 % 1024,1 hPa 0,0 l/m 0,03 h 0,00 h 103 W/m 13,7 km/h (3 Bft) 97,86 %
19.02.2023 14:00 10,3 C 10,4 C 7,2 C 90 % 1024,3 hPa 0,0 l/m 0,00 h 0,00 h 112 W/m 12,6 km/h (3 Bft) 96,71 %
19.02.2023 15:00 10,2 C 9,5 C 6,8 C 89 % 1025,0 hPa 0,0 l/m 0,00 h 0,03 h 40 W/m 12,2 km/h (3 Bft) 95,80 %
19.02.2023 16:00 9,7 C 9,1 C 6,1 C 90 % 1024,7 hPa 0,0 l/m 0,00 h 0,00 h 19 W/m 13,8 km/h (3 Bft) 96,59 %
19.02.2023 17:00 9,1 C 8,4 C 5,7 C 88 % 1025,2 hPa 0,0 l/m 0,13 h 0,00 h 20 W/m 20,3 km/h (4 Bft) 98,86 %
19.02.2023 18:00 8,5 C 7,8 C 4,9 C 87 % 1026,1 hPa 0,0 l/m 0,00 h 0,00 h 0 W/m 17,1 km/h (3 Bft) 94,38 %
19.02.2023 19:00 7,8 C 7,2 C 4,4 C 89 % 1026,6 hPa 0,0 l/m 0,00 h 0,00 h 0 W/m 17,3 km/h (3 Bft) 98,83 %
19.02.2023 20:00 7,6 C 7,0 C 4,2 C 88 % 1027,0 hPa 0,0 l/m 0,00 h 0,00 h 0 W/m 11,2 km/h (2 Bft) 97,61 %
19.02.2023 21:00 6,9 C 5,9 C 3,2 C 88 % 1027,3 hPa 0,0 l/m 0,00 h 0,00 h 0 W/m 9,4 km/h (2 Bft) 97,03 %
19.02.2023 22:00 5,9 C 4,9 C 2,4 C 90 % 1027,5 hPa 0,0 l/m 0,00 h 0,00 h 0 W/m 7,5 km/h (2 Bft) 97,65 %
19.02.2023 23:00 5,3 C 4,4 C 2,0 C 91 % 1027,4 hPa 0,0 l/m 0,00 h 0,00 h 0 W/m 6,4 km/h (2 Bft) 97,79 %
Min-Datum _ 15.02.23 15.02.23 15.02.23 15.02.23 19.02.23 - - - - 13.02.23 15.02.23
_ Min-Zeit 07:16 06:36 06:54 14:54 01:40 - - - - 00:00 15:10
Minimum _ 0,8 C 0,0 C -2,8 C 64 % 1018,0 hPa - - - - 0,0 km/h (0 Bft) 4,76 %
Max-Datum _ 17.02.23 13.02.23 17.02.23 18.02.23 13.02.23 18.02.23 14.02.23 16.02.23 15.02.23 17.02.23 13.02.23
_ Max-Zeit 13:46 13:22 13:44 06:36 00:12 13:00 16:09 18:07 14:00 15:02 00:02
Maximum _ 14,9 C 23,9 C 11,1 C 98 % 1038,1 hPa 0,4 l/m 0,05 h 0,05 h 470 W/m 51,5 km/h
NO (7 Bft)
100,00 %
Durchschnitt _ 8,5 C 8,4 C 4,4 C 88 % 1026,3 hPa #2,6 l/m #20:51 h #4:00 h 129 W/m 13,4 km/h (3 Bft) 95,34 %
© 2023 W. Hausmann